createdAt,value
2023-07-19T00:00:45.321Z,18.53
2023-07-19T00:01:45.574Z,18.52
2023-07-19T00:02:45.323Z,18.52
2023-07-19T00:03:45.314Z,18.49
2023-07-19T00:04:45.274Z,18.49
2023-07-19T00:05:45.238Z,18.48
2023-07-19T00:06:45.239Z,18.46
2023-07-19T00:07:45.276Z,18.46
2023-07-19T00:08:45.219Z,18.43
2023-07-19T00:09:45.304Z,18.43
2023-07-19T00:10:45.250Z,18.42
2023-07-19T00:11:45.411Z,18.39
2023-07-19T00:12:55.933Z,18.36
2023-07-19T00:13:46.165Z,18.37
2023-07-19T00:14:45.321Z,18.36
2023-07-19T00:15:45.122Z,18.34
2023-07-19T00:16:45.171Z,18.31
2023-07-19T00:17:45.151Z,18.33
2023-07-19T00:18:45.124Z,18.30
2023-07-19T00:19:45.292Z,18.28
2023-07-19T00:20:45.093Z,18.24
2023-07-19T00:21:45.216Z,18.24
2023-07-19T00:22:45.104Z,18.23
2023-07-19T00:23:45.033Z,18.19
2023-07-19T00:24:45.086Z,18.18
2023-07-19T00:25:45.034Z,18.16
2023-07-19T00:26:45.051Z,18.13
2023-07-19T00:27:45.046Z,18.11
2023-07-19T00:28:44.997Z,18.11
2023-07-19T00:29:45.015Z,18.08
2023-07-19T00:30:45.000Z,18.06
2023-07-19T00:31:44.999Z,18.03
2023-07-19T00:32:45.036Z,18.03
2023-07-19T00:33:44.988Z,17.98
2023-07-19T00:34:44.927Z,17.98
2023-07-19T00:35:44.946Z,17.94
2023-07-19T00:36:44.953Z,17.94
2023-07-19T00:37:44.918Z,17.93
2023-07-19T00:38:44.892Z,17.91
2023-07-19T00:39:45.121Z,17.91
2023-07-19T00:40:44.870Z,17.88
2023-07-19T00:41:44.882Z,17.88
2023-07-19T00:42:44.859Z,17.84
2023-07-19T00:43:44.845Z,17.84
2023-07-19T00:44:44.916Z,17.80
2023-07-19T00:45:44.830Z,17.79
2023-07-19T00:46:44.927Z,17.76
2023-07-19T00:47:44.942Z,17.78
2023-07-19T00:48:44.822Z,17.73
2023-07-19T00:49:44.780Z,17.75
2023-07-19T00:50:44.836Z,17.73
2023-07-19T00:51:44.766Z,17.71
2023-07-19T00:52:44.762Z,17.69
2023-07-19T00:53:44.852Z,17.69
2023-07-19T00:54:44.785Z,17.65
2023-07-19T00:55:44.822Z,17.65
2023-07-19T00:56:44.792Z,17.63
2023-07-19T00:57:44.840Z,17.63
2023-07-19T00:58:44.787Z,17.60
2023-07-19T00:59:44.757Z,17.60
2023-07-19T01:00:44.665Z,17.57
2023-07-19T01:01:44.665Z,17.54
2023-07-19T01:02:44.655Z,17.54
2023-07-19T01:03:44.633Z,17.54
2023-07-19T01:04:44.682Z,17.50
2023-07-19T01:05:44.666Z,17.52
2023-07-19T01:06:44.688Z,17.49
2023-07-19T01:07:44.674Z,17.47
2023-07-19T01:08:44.577Z,17.47
2023-07-19T01:09:44.645Z,17.44
2023-07-19T01:10:44.592Z,17.41
2023-07-19T01:11:44.742Z,17.41
2023-07-19T01:12:44.538Z,17.38
2023-07-19T01:13:44.604Z,17.38
2023-07-19T01:14:44.785Z,17.37
2023-07-19T01:15:44.561Z,17.37
2023-07-19T01:16:44.597Z,17.38
2023-07-19T01:17:44.581Z,17.35
2023-07-19T01:18:44.556Z,17.34
2023-07-19T01:19:44.546Z,17.32
2023-07-19T01:20:44.487Z,17.30
2023-07-19T01:21:44.466Z,17.30
2023-07-19T01:22:44.462Z,17.27
2023-07-19T01:23:44.504Z,17.24
2023-07-19T01:24:44.462Z,17.24
2023-07-19T01:25:44.474Z,17.20
2023-07-19T01:26:44.424Z,17.19
2023-07-19T01:27:44.466Z,17.20
2023-07-19T01:28:44.416Z,17.19
2023-07-19T01:29:44.429Z,17.16
2023-07-19T01:30:44.386Z,17.13
2023-07-19T01:31:44.388Z,17.13
2023-07-19T01:32:44.433Z,17.12
2023-07-19T01:33:44.575Z,17.10
2023-07-19T01:34:44.354Z,17.12
2023-07-19T01:35:44.373Z,17.09
2023-07-19T01:36:44.342Z,17.07
2023-07-19T01:37:44.316Z,17.05
2023-07-19T01:38:44.276Z,17.05
2023-07-19T01:39:44.369Z,17.02
2023-07-19T01:40:44.235Z,17.02
2023-07-19T01:41:44.232Z,17.01
2023-07-19T01:42:44.249Z,17.01
2023-07-19T01:43:44.205Z,16.99
2023-07-19T01:44:44.177Z,16.99
2023-07-19T01:45:44.218Z,16.99
2023-07-19T01:46:44.178Z,16.97
2023-07-19T01:47:44.321Z,16.97
2023-07-19T01:48:44.133Z,16.98
2023-07-19T01:49:44.109Z,16.98
2023-07-19T01:50:44.140Z,16.97
2023-07-19T01:51:44.187Z,16.98
2023-07-19T01:52:44.116Z,16.98
2023-07-19T01:53:44.069Z,16.98
2023-07-19T01:54:44.114Z,16.99
2023-07-19T01:55:44.278Z,16.99
2023-07-19T01:56:44.041Z,16.99
2023-07-19T01:57:44.069Z,16.99
2023-07-19T01:58:44.079Z,16.98
2023-07-19T01:59:44.002Z,16.99
2023-07-19T02:00:44.078Z,16.98
2023-07-19T02:01:44.132Z,16.99
2023-07-19T02:02:44.126Z,16.99
2023-07-19T02:03:43.985Z,16.98
2023-07-19T02:04:44.183Z,16.97
2023-07-19T02:05:43.968Z,16.98
2023-07-19T02:06:43.951Z,16.94
2023-07-19T02:07:43.930Z,16.98
2023-07-19T02:08:44.150Z,16.92
2023-07-19T02:09:43.970Z,16.94
2023-07-19T02:10:43.944Z,16.92
2023-07-19T02:11:44.045Z,16.92
2023-07-19T02:12:43.897Z,16.91
2023-07-19T02:13:43.981Z,16.89
2023-07-19T02:14:43.856Z,16.87
2023-07-19T02:15:43.997Z,16.91
2023-07-19T02:16:43.816Z,16.86
2023-07-19T02:17:43.827Z,16.86
2023-07-19T02:18:43.813Z,16.86
2023-07-19T02:19:43.903Z,16.84
2023-07-19T02:20:43.785Z,16.83
2023-07-19T02:21:43.811Z,16.82
2023-07-19T02:22:43.834Z,16.80
2023-07-19T02:23:43.755Z,16.82
2023-07-19T02:24:43.741Z,16.79
2023-07-19T02:25:43.781Z,16.77
2023-07-19T02:26:43.731Z,16.77
2023-07-19T02:27:43.774Z,16.77
2023-07-19T02:28:43.845Z,16.76
2023-07-19T02:29:43.693Z,16.76
2023-07-19T02:30:43.709Z,16.76
2023-07-19T02:31:43.743Z,16.74
2023-07-19T02:32:43.734Z,16.76
2023-07-19T02:33:43.649Z,16.76
2023-07-19T02:34:43.628Z,16.76
2023-07-19T02:35:43.660Z,16.74
2023-07-19T02:36:43.650Z,16.76
2023-07-19T02:37:43.628Z,16.76
2023-07-19T02:38:43.613Z,16.77
2023-07-19T02:39:43.662Z,16.77
2023-07-19T02:40:43.633Z,16.77
2023-07-19T02:41:43.612Z,16.77
2023-07-19T02:42:43.594Z,16.74
2023-07-19T02:43:43.589Z,16.77
2023-07-19T02:44:43.629Z,16.76
2023-07-19T02:45:43.563Z,16.77
2023-07-19T02:46:43.594Z,16.77
2023-07-19T02:47:43.597Z,16.79
2023-07-19T02:48:43.484Z,16.77
2023-07-19T02:49:43.498Z,16.79
2023-07-19T02:50:43.444Z,16.80
2023-07-19T02:51:43.417Z,16.82
2023-07-19T02:52:43.428Z,16.82
2023-07-19T02:53:43.432Z,16.83
2023-07-19T02:54:43.447Z,16.84
2023-07-19T02:55:43.522Z,16.84
2023-07-19T02:56:43.472Z,16.86
2023-07-19T02:57:43.480Z,16.87
2023-07-19T02:58:43.413Z,16.87
2023-07-19T02:59:43.431Z,16.87
2023-07-19T03:00:43.420Z,16.89
2023-07-19T03:01:43.591Z,16.91
2023-07-19T03:02:43.387Z,16.89
2023-07-19T03:03:43.417Z,16.92
2023-07-19T03:04:43.367Z,16.94
2023-07-19T03:05:43.375Z,16.94
2023-07-19T03:06:43.311Z,16.94
2023-07-19T03:07:43.331Z,16.95
2023-07-19T03:08:43.329Z,16.95
2023-07-19T03:09:43.293Z,16.95
2023-07-19T03:10:43.282Z,16.97
2023-07-19T03:11:43.274Z,16.97
2023-07-19T03:12:43.264Z,16.92
2023-07-19T03:13:43.215Z,16.95
2023-07-19T03:14:43.214Z,16.95
2023-07-19T03:15:43.228Z,16.94
2023-07-19T03:16:43.193Z,16.94
2023-07-19T03:17:43.242Z,16.94
2023-07-19T03:18:43.161Z,16.95
2023-07-19T03:19:43.176Z,16.94
2023-07-19T03:20:43.158Z,16.94
2023-07-19T03:21:43.151Z,16.94
2023-07-19T03:22:43.254Z,16.95
2023-07-19T03:23:43.217Z,16.94
2023-07-19T03:24:43.253Z,16.92
2023-07-19T03:25:43.114Z,16.92
2023-07-19T03:26:43.088Z,16.92
2023-07-19T03:27:43.157Z,16.94
2023-07-19T03:28:43.066Z,16.92
2023-07-19T03:29:43.057Z,16.91
2023-07-19T03:30:43.053Z,16.92
2023-07-19T03:31:43.047Z,16.94
2023-07-19T03:32:43.017Z,16.92
2023-07-19T03:33:42.998Z,16.94
2023-07-19T03:34:43.005Z,16.91
2023-07-19T03:35:43.001Z,16.92
2023-07-19T03:36:43.018Z,16.89
2023-07-19T03:37:42.989Z,16.91
2023-07-19T03:38:43.060Z,16.89
2023-07-19T03:39:42.941Z,16.91
2023-07-19T03:40:42.908Z,16.86
2023-07-19T03:41:42.959Z,16.87
2023-07-19T03:42:42.936Z,16.87
2023-07-19T03:43:42.950Z,16.86
2023-07-19T03:44:42.986Z,16.84
2023-07-19T03:45:42.935Z,16.86
2023-07-19T03:46:42.934Z,16.87
2023-07-19T03:47:42.964Z,16.86
2023-07-19T03:48:42.868Z,16.86
2023-07-19T03:49:42.900Z,16.86
2023-07-19T03:50:42.822Z,16.84
2023-07-19T03:51:42.828Z,16.86
2023-07-19T03:52:42.834Z,16.86
2023-07-19T03:53:42.795Z,16.87
2023-07-19T03:54:42.822Z,16.87
2023-07-19T03:55:42.815Z,16.89
2023-07-19T03:56:42.772Z,16.89
2023-07-19T03:57:42.841Z,16.89
2023-07-19T03:58:42.709Z,16.89
2023-07-19T03:59:42.701Z,16.91
2023-07-19T04:00:42.701Z,16.91
2023-07-19T04:01:43.007Z,16.92
2023-07-19T04:02:42.718Z,16.94
2023-07-19T04:03:42.699Z,16.95
2023-07-19T04:04:42.639Z,16.97
2023-07-19T04:05:42.628Z,16.97
2023-07-19T04:06:42.623Z,16.99
2023-07-19T04:07:42.640Z,16.99
2023-07-19T04:08:42.644Z,16.99
2023-07-19T04:09:42.609Z,17.02
2023-07-19T04:10:42.588Z,17.02
2023-07-19T04:11:42.631Z,17.04
2023-07-19T04:12:42.600Z,17.04
2023-07-19T04:13:42.570Z,17.04
2023-07-19T04:14:42.545Z,17.07
2023-07-19T04:15:42.662Z,17.05
2023-07-19T04:16:42.556Z,17.05
2023-07-19T04:17:42.613Z,17.10
2023-07-19T04:18:42.490Z,17.09
2023-07-19T04:19:42.518Z,17.10
2023-07-19T04:20:42.445Z,17.12
2023-07-19T04:21:42.470Z,17.12
2023-07-19T04:22:42.446Z,17.13
2023-07-19T04:23:42.477Z,17.13
2023-07-19T04:24:42.425Z,17.14
2023-07-19T04:25:42.595Z,17.17
2023-07-19T04:26:42.423Z,17.17
2023-07-19T04:27:42.388Z,17.19
2023-07-19T04:28:42.401Z,17.17
2023-07-19T04:29:42.398Z,17.22
2023-07-19T04:30:42.357Z,17.22
2023-07-19T04:31:42.404Z,17.23
2023-07-19T04:32:42.400Z,17.24
2023-07-19T04:33:42.538Z,17.28
2023-07-19T04:34:42.305Z,17.27
2023-07-19T04:35:42.343Z,17.30
2023-07-19T04:36:42.404Z,17.32
2023-07-19T04:37:42.296Z,17.34
2023-07-19T04:38:42.252Z,17.38
2023-07-19T04:39:42.351Z,17.38
2023-07-19T04:40:42.294Z,17.38
2023-07-19T04:41:43.893Z,17.42
2023-07-19T04:42:42.254Z,17.47
2023-07-19T04:43:42.198Z,17.47
2023-07-19T04:44:42.219Z,17.50
2023-07-19T04:45:42.184Z,17.53
2023-07-19T04:46:42.205Z,17.56
2023-07-19T04:47:42.223Z,17.57
2023-07-19T04:48:42.142Z,17.60
2023-07-19T04:49:42.145Z,17.69
2023-07-19T04:50:42.112Z,17.69
2023-07-19T04:51:42.172Z,17.73
2023-07-19T04:52:42.125Z,17.76
2023-07-19T04:53:42.110Z,17.78
2023-07-19T04:54:42.098Z,17.82
2023-07-19T04:55:42.082Z,17.90
2023-07-19T04:56:42.066Z,17.91
2023-07-19T04:57:42.078Z,17.98
2023-07-19T04:58:42.064Z,18.00
2023-07-19T04:59:42.138Z,18.08
2023-07-19T05:00:42.017Z,18.12
2023-07-19T05:01:42.035Z,18.15
2023-07-19T05:02:42.088Z,18.19
2023-07-19T05:03:42.023Z,18.24
2023-07-19T05:04:42.091Z,18.27
2023-07-19T05:05:42.022Z,18.31
2023-07-19T05:06:42.004Z,18.34
2023-07-19T05:07:42.039Z,18.41
2023-07-19T05:08:42.073Z,18.43
2023-07-19T05:09:41.988Z,18.48
2023-07-19T05:10:42.185Z,18.51
2023-07-19T05:11:41.933Z,18.55
2023-07-19T05:12:42.005Z,18.61
2023-07-19T05:13:42.251Z,18.67
2023-07-19T05:14:41.947Z,18.73
2023-07-19T05:15:41.903Z,18.78
2023-07-19T05:16:42.114Z,18.86
2023-07-19T05:17:41.912Z,18.97
2023-07-19T05:18:41.838Z,19.05
2023-07-19T05:19:41.874Z,19.11
2023-07-19T05:20:41.824Z,19.16
2023-07-19T05:21:41.821Z,19.22
2023-07-19T05:22:41.874Z,19.27
2023-07-19T05:23:41.809Z,19.35
2023-07-19T05:24:41.808Z,19.39
2023-07-19T05:25:41.845Z,19.45
2023-07-19T05:26:41.758Z,19.45
2023-07-19T05:27:41.736Z,19.48
2023-07-19T05:28:41.772Z,19.52
2023-07-19T05:29:41.844Z,19.55
2023-07-19T05:30:41.744Z,19.56
2023-07-19T05:31:41.839Z,19.59
2023-07-19T05:32:41.772Z,19.60
2023-07-19T05:33:41.778Z,19.63
2023-07-19T05:34:41.675Z,19.66
2023-07-19T05:35:41.724Z,19.64
2023-07-19T05:36:41.657Z,19.67
2023-07-19T05:37:41.683Z,19.72
2023-07-19T05:38:41.604Z,19.74
2023-07-19T05:39:41.652Z,19.75
2023-07-19T05:40:41.665Z,19.77
2023-07-19T05:41:41.595Z,19.79
2023-07-19T05:42:41.589Z,19.81
2023-07-19T05:43:41.644Z,19.82
2023-07-19T05:44:41.605Z,19.81
2023-07-19T05:45:41.587Z,19.81
2023-07-19T05:46:41.593Z,19.79
2023-07-19T05:47:41.576Z,19.81
2023-07-19T05:48:41.623Z,19.81
2023-07-19T05:49:41.628Z,19.81
2023-07-19T05:50:41.463Z,19.85
2023-07-19T05:51:41.600Z,19.85
2023-07-19T05:52:41.415Z,19.85
2023-07-19T05:53:41.474Z,19.89
2023-07-19T05:54:41.475Z,19.92
2023-07-19T05:55:41.399Z,19.92
2023-07-19T05:56:41.383Z,19.94
2023-07-19T05:57:41.404Z,19.97
2023-07-19T05:58:41.372Z,20.00
2023-07-19T05:59:41.454Z,20.03
2023-07-19T06:00:41.497Z,20.07
2023-07-19T06:01:41.512Z,20.08
2023-07-19T06:02:53.478Z,20.14
2023-07-19T06:03:42.458Z,20.19
2023-07-19T06:04:41.391Z,20.26
2023-07-19T06:05:41.343Z,20.29
2023-07-19T06:06:41.381Z,20.30
2023-07-19T06:07:41.318Z,20.32
2023-07-19T06:08:41.502Z,20.37
2023-07-19T06:09:41.416Z,20.42
2023-07-19T06:10:41.244Z,20.48
2023-07-19T06:11:41.260Z,20.56
2023-07-19T06:12:41.232Z,20.64
2023-07-19T06:13:41.207Z,20.73
2023-07-19T06:14:41.198Z,20.77
2023-07-19T06:15:41.240Z,20.80
2023-07-19T06:16:41.172Z,20.85
2023-07-19T06:17:41.239Z,20.89
2023-07-19T06:18:41.188Z,20.89
2023-07-19T06:19:41.123Z,20.95
2023-07-19T06:20:41.372Z,20.98
2023-07-19T06:21:41.102Z,21.01
2023-07-19T06:22:41.126Z,21.03
2023-07-19T06:23:41.267Z,21.05
2023-07-19T06:24:41.131Z,21.05
2023-07-19T06:25:41.062Z,21.11
2023-07-19T06:26:41.077Z,21.14
2023-07-19T06:27:41.078Z,21.19
2023-07-19T06:28:41.058Z,21.25
2023-07-19T06:29:41.057Z,21.35
2023-07-19T06:30:41.023Z,21.50
2023-07-19T06:31:41.043Z,21.72
2023-07-19T06:32:41.066Z,21.92
2023-07-19T06:33:40.975Z,22.16
2023-07-19T06:34:41.097Z,22.37
2023-07-19T06:35:40.976Z,22.63
2023-07-19T06:36:40.978Z,22.80
2023-07-19T06:37:40.959Z,23.01
2023-07-19T06:38:40.961Z,23.16
2023-07-19T06:39:40.960Z,23.36
2023-07-19T06:40:40.952Z,23.59
2023-07-19T06:41:40.890Z,23.84
2023-07-19T06:42:40.879Z,24.03
2023-07-19T06:43:40.982Z,24.18
2023-07-19T06:44:40.861Z,24.28
2023-07-19T06:45:40.871Z,24.38
2023-07-19T06:46:40.886Z,24.44
2023-07-19T06:47:40.887Z,24.47
2023-07-19T06:48:40.806Z,24.48
2023-07-19T06:49:40.796Z,24.50
2023-07-19T06:50:40.815Z,24.53
2023-07-19T06:51:40.806Z,24.58
2023-07-19T06:52:40.819Z,24.65
2023-07-19T06:53:41.511Z,24.63
2023-07-19T06:54:40.775Z,24.62
2023-07-19T06:55:41.232Z,24.61
2023-07-19T06:56:40.731Z,24.56
2023-07-19T06:57:40.736Z,24.51
2023-07-19T06:58:40.879Z,24.47
2023-07-19T06:59:40.724Z,24.43
2023-07-19T07:00:40.793Z,24.40
2023-07-19T07:01:40.877Z,24.34
2023-07-19T07:02:40.718Z,24.29
2023-07-19T07:03:40.903Z,24.31
2023-07-19T07:04:40.749Z,24.48
2023-07-19T07:05:40.659Z,24.74
2023-07-19T07:06:40.690Z,24.99
2023-07-19T07:07:40.720Z,25.14
2023-07-19T07:08:40.622Z,25.24
2023-07-19T07:09:40.655Z,25.34
2023-07-19T07:10:40.589Z,25.51
2023-07-19T07:11:40.640Z,25.54
2023-07-19T07:12:40.558Z,25.51
2023-07-19T07:13:40.640Z,25.44
2023-07-19T07:14:40.551Z,25.39
2023-07-19T07:15:40.576Z,25.33
2023-07-19T07:16:40.580Z,25.30
2023-07-19T07:17:40.518Z,25.31
2023-07-19T07:18:40.549Z,25.39
2023-07-19T07:19:40.525Z,25.44
2023-07-19T07:20:40.496Z,25.52
2023-07-19T07:21:40.496Z,25.61
2023-07-19T07:22:40.496Z,25.66
2023-07-19T07:23:40.474Z,25.66
2023-07-19T07:24:40.444Z,25.66
2023-07-19T07:25:40.517Z,25.66
2023-07-19T07:26:40.440Z,25.63
2023-07-19T07:27:40.490Z,25.62
2023-07-19T07:28:42.454Z,25.62
2023-07-19T07:29:40.473Z,25.67
2023-07-19T07:30:40.371Z,25.78
2023-07-19T07:31:40.433Z,25.83
2023-07-19T07:32:40.420Z,25.83
2023-07-19T07:33:40.467Z,25.88
2023-07-19T07:34:40.308Z,25.92
2023-07-19T07:35:40.300Z,25.98
2023-07-19T07:36:40.298Z,25.99
2023-07-19T07:37:40.268Z,25.99
2023-07-19T07:38:40.252Z,26.04
2023-07-19T07:39:40.297Z,26.08
2023-07-19T07:40:40.224Z,26.06
2023-07-19T07:41:40.423Z,26.10
2023-07-19T07:42:40.284Z,26.15
2023-07-19T07:43:40.267Z,26.24
2023-07-19T07:44:40.251Z,26.23
2023-07-19T07:45:40.184Z,26.22
2023-07-19T07:46:40.421Z,26.18
2023-07-19T07:47:40.287Z,26.16
2023-07-19T07:48:40.229Z,26.11
2023-07-19T07:49:40.322Z,26.11
2023-07-19T07:50:40.177Z,26.06
2023-07-19T07:51:40.125Z,25.99
2023-07-19T07:52:40.129Z,25.98
2023-07-19T07:53:40.136Z,25.95
2023-07-19T07:54:40.091Z,25.89
2023-07-19T07:55:40.195Z,25.86
2023-07-19T07:56:40.144Z,25.91
2023-07-19T07:57:40.109Z,25.93
2023-07-19T07:58:40.040Z,25.98
2023-07-19T07:59:40.187Z,26.03
2023-07-19T08:00:40.108Z,26.07
2023-07-19T08:01:40.017Z,26.07
2023-07-19T08:02:40.097Z,26.10
2023-07-19T08:03:40.035Z,26.16
2023-07-19T08:04:40.008Z,26.16
2023-07-19T08:05:39.997Z,26.24
2023-07-19T08:06:39.955Z,26.26
2023-07-19T08:07:39.952Z,26.29
2023-07-19T08:08:39.970Z,26.31
2023-07-19T08:09:39.985Z,26.33
2023-07-19T08:10:40.009Z,26.31
2023-07-19T08:11:39.959Z,26.31
2023-07-19T08:12:39.924Z,26.34
2023-07-19T08:13:39.887Z,26.31
2023-07-19T08:14:39.972Z,26.30
2023-07-19T08:15:39.878Z,26.34
2023-07-19T08:16:39.915Z,26.36
2023-07-19T08:17:39.890Z,26.34
2023-07-19T08:18:39.826Z,26.34
2023-07-19T08:19:39.835Z,26.37
2023-07-19T08:20:39.808Z,26.39
2023-07-19T08:21:40.061Z,26.41
2023-07-19T08:22:39.780Z,26.41
2023-07-19T08:23:39.804Z,26.42
2023-07-19T08:24:39.786Z,26.45
2023-07-19T08:25:39.771Z,26.49
2023-07-19T08:26:39.747Z,26.49
2023-07-19T08:27:39.800Z,26.55
2023-07-19T08:28:39.781Z,26.60
2023-07-19T08:29:39.704Z,26.61
2023-07-19T08:30:39.753Z,26.63
2023-07-19T08:31:39.681Z,26.66
2023-07-19T08:32:39.680Z,26.71
2023-07-19T08:33:39.770Z,26.83
2023-07-19T08:34:39.654Z,26.98
2023-07-19T08:35:39.676Z,27.07
2023-07-19T08:36:39.651Z,27.11
2023-07-19T08:37:39.612Z,27.13
2023-07-19T08:38:39.689Z,27.18
2023-07-19T08:39:39.673Z,27.22
2023-07-19T08:40:39.684Z,27.33
2023-07-19T08:41:39.757Z,27.37
2023-07-19T08:42:39.615Z,27.40
2023-07-19T08:43:39.693Z,27.38
2023-07-19T08:44:39.575Z,27.38
2023-07-19T08:45:39.576Z,27.35
2023-07-19T08:46:39.619Z,27.35
2023-07-19T08:47:39.601Z,27.48
2023-07-19T08:48:39.510Z,27.71
2023-07-19T08:49:39.554Z,27.88
2023-07-19T08:50:39.462Z,28.00
2023-07-19T08:51:39.524Z,28.18
2023-07-19T08:52:39.494Z,28.38
2023-07-19T08:53:39.475Z,28.59
2023-07-19T08:54:39.463Z,28.87
2023-07-19T08:55:39.443Z,29.16
2023-07-19T08:56:39.447Z,29.27
2023-07-19T08:57:39.423Z,29.35
2023-07-19T08:58:39.385Z,29.43
2023-07-19T08:59:39.421Z,29.52
2023-07-19T09:00:39.496Z,29.53
2023-07-19T09:01:39.448Z,29.53
2023-07-19T09:02:39.385Z,29.57
2023-07-19T09:03:39.365Z,29.68
2023-07-19T09:04:39.393Z,29.83
2023-07-19T09:05:39.397Z,29.99
2023-07-19T09:06:39.354Z,30.17
2023-07-19T09:07:39.408Z,30.48
2023-07-19T09:08:39.323Z,30.86
2023-07-19T09:09:39.298Z,31.23
2023-07-19T09:10:39.289Z,31.55
2023-07-19T09:11:39.275Z,31.93
2023-07-19T09:12:39.250Z,32.15
2023-07-19T09:13:39.966Z,32.20
2023-07-19T09:14:39.255Z,32.12
2023-07-19T09:15:39.209Z,32.11
2023-07-19T09:16:39.233Z,32.17
2023-07-19T09:17:39.346Z,32.22
2023-07-19T09:18:40.158Z,32.39
2023-07-19T09:19:39.209Z,32.67
2023-07-19T09:20:39.182Z,32.93
2023-07-19T09:21:39.133Z,33.09
2023-07-19T09:22:39.206Z,33.16
2023-07-19T09:23:39.181Z,33.19
2023-07-19T09:24:39.254Z,33.19
2023-07-19T09:25:39.090Z,33.12
2023-07-19T09:26:39.165Z,32.97
2023-07-19T09:27:39.159Z,32.82
2023-07-19T09:28:39.125Z,32.67
2023-07-19T09:29:39.241Z,32.56
2023-07-19T09:30:39.068Z,32.38
2023-07-19T09:31:39.069Z,32.22
2023-07-19T09:32:39.126Z,32.08
2023-07-19T09:33:39.060Z,32.04
2023-07-19T09:34:39.491Z,32.02
2023-07-19T09:35:39.015Z,32.20
2023-07-19T09:36:39.027Z,32.41
2023-07-19T09:37:38.955Z,32.56
2023-07-19T09:38:39.132Z,32.61
2023-07-19T09:39:38.993Z,32.63
2023-07-19T09:40:38.990Z,32.67
2023-07-19T09:41:38.938Z,32.64
2023-07-19T09:42:38.967Z,32.56
2023-07-19T09:43:38.909Z,32.44
2023-07-19T09:44:38.935Z,32.30
2023-07-19T09:45:38.963Z,32.22
2023-07-19T09:46:38.981Z,32.16
2023-07-19T09:47:39.016Z,32.05
2023-07-19T09:48:38.966Z,31.95
2023-07-19T09:49:38.911Z,31.86
2023-07-19T09:50:38.899Z,31.74
2023-07-19T09:51:38.829Z,31.64
2023-07-19T09:52:38.969Z,31.54
2023-07-19T09:53:38.966Z,31.45
2023-07-19T09:54:38.885Z,31.39
2023-07-19T09:55:38.957Z,31.35
2023-07-19T09:56:38.750Z,31.36
2023-07-19T09:57:38.773Z,31.30
2023-07-19T09:58:38.843Z,31.25
2023-07-19T09:59:38.961Z,31.15
2023-07-19T10:00:38.798Z,31.18
2023-07-19T10:01:38.749Z,31.20
2023-07-19T10:02:38.749Z,31.22
2023-07-19T10:03:38.724Z,31.20
2023-07-19T10:04:38.746Z,31.22
2023-07-19T10:05:38.762Z,31.23
2023-07-19T10:06:38.687Z,31.17
2023-07-19T10:07:50.840Z,31.11
2023-07-19T10:08:39.766Z,30.98
2023-07-19T10:09:38.655Z,30.91
2023-07-19T10:10:38.639Z,30.81
2023-07-19T10:11:38.640Z,30.80
2023-07-19T10:12:38.637Z,30.80
2023-07-19T10:13:38.610Z,30.77
2023-07-19T10:14:38.620Z,30.70
2023-07-19T10:15:38.779Z,30.62
2023-07-19T10:16:38.703Z,30.61
2023-07-19T10:17:38.578Z,30.62
2023-07-19T10:18:38.513Z,30.58
2023-07-19T10:19:38.557Z,30.49
2023-07-19T10:20:38.603Z,30.43
2023-07-19T10:21:38.512Z,30.39
2023-07-19T10:22:38.598Z,30.39
2023-07-19T10:23:38.458Z,30.36
2023-07-19T10:24:38.428Z,30.36
2023-07-19T10:25:38.461Z,30.38
2023-07-19T10:26:38.461Z,30.38
2023-07-19T10:27:39.388Z,30.40
2023-07-19T10:28:38.386Z,30.44
2023-07-19T10:29:38.388Z,30.51
2023-07-19T10:30:38.374Z,30.55
2023-07-19T10:31:38.408Z,30.56
2023-07-19T10:32:38.415Z,30.56
2023-07-19T10:33:38.387Z,30.56
2023-07-19T10:34:44.835Z,30.61
2023-07-19T10:35:39.374Z,30.65
2023-07-19T10:36:38.326Z,30.71
2023-07-19T10:37:38.360Z,30.74
2023-07-19T10:38:38.278Z,30.80
2023-07-19T10:39:38.451Z,30.89
2023-07-19T10:40:38.387Z,31.08
2023-07-19T10:41:38.593Z,31.32
2023-07-19T10:42:38.369Z,31.48
2023-07-19T10:44:38.302Z,32.23
2023-07-19T10:45:38.323Z,32.45
2023-07-19T10:46:38.198Z,32.51
2023-07-19T10:47:38.272Z,32.93
2023-07-19T10:48:40.741Z,33.31
2023-07-19T10:49:38.157Z,33.72
2023-07-19T10:50:38.140Z,33.94
2023-07-19T10:51:38.133Z,34.13
2023-07-19T10:52:38.164Z,34.37
2023-07-19T10:53:38.130Z,34.41
2023-07-19T10:54:46.146Z,34.48
2023-07-19T10:55:53.560Z,34.70
2023-07-19T10:56:39.228Z,34.75
2023-07-19T10:57:38.241Z,34.55
2023-07-19T10:58:38.113Z,34.31
2023-07-19T10:59:38.189Z,34.14
2023-07-19T11:00:38.254Z,33.91
2023-07-19T11:01:38.216Z,33.75
2023-07-19T11:02:38.067Z,33.55
2023-07-19T11:03:38.110Z,33.33
2023-07-19T11:04:38.034Z,33.05
2023-07-19T11:05:38.109Z,32.85
2023-07-19T11:06:37.985Z,32.68
2023-07-19T11:07:37.993Z,32.53
2023-07-19T11:08:37.945Z,32.44
2023-07-19T11:09:38.222Z,32.31
2023-07-19T11:10:37.953Z,32.22
2023-07-19T11:11:37.966Z,32.07
2023-07-19T11:12:37.920Z,31.97
2023-07-19T11:13:38.151Z,31.90
2023-07-19T11:14:37.968Z,31.78
2023-07-19T11:15:37.920Z,31.67
2023-07-19T11:16:37.924Z,31.63
2023-07-19T11:17:37.916Z,31.59
2023-07-19T11:18:37.898Z,31.52
2023-07-19T11:19:37.857Z,31.52
2023-07-19T11:20:37.815Z,31.52
2023-07-19T11:21:37.829Z,31.55
2023-07-19T11:22:37.848Z,31.57
2023-07-19T11:23:37.831Z,31.59
2023-07-19T11:24:37.869Z,31.57
2023-07-19T11:25:37.757Z,31.62
2023-07-19T11:26:37.779Z,31.64
2023-07-19T11:27:37.762Z,31.70
2023-07-19T11:28:37.764Z,31.73
2023-07-19T11:29:37.740Z,31.81
2023-07-19T11:30:37.862Z,31.90
2023-07-19T11:31:37.776Z,32.00
2023-07-19T11:32:37.695Z,32.07
2023-07-19T11:33:37.687Z,32.19
2023-07-19T11:34:37.703Z,32.37
2023-07-19T11:35:37.703Z,32.37
2023-07-19T11:36:37.686Z,32.30
2023-07-19T11:37:37.710Z,32.23
2023-07-19T11:38:37.708Z,32.11
2023-07-19T11:39:37.685Z,32.00
2023-07-19T11:40:37.746Z,31.97
2023-07-19T11:41:37.653Z,32.09
2023-07-19T11:42:38.153Z,32.71
2023-07-19T11:43:37.606Z,33.29
2023-07-19T11:44:37.608Z,33.58
2023-07-19T11:45:37.569Z,33.54
2023-07-19T11:46:37.631Z,33.39
2023-07-19T11:47:37.622Z,33.54
2023-07-19T11:48:37.528Z,34.10
2023-07-19T11:49:37.517Z,34.18
2023-07-19T11:50:37.515Z,34.02
2023-07-19T11:51:37.484Z,34.00
2023-07-19T11:52:37.477Z,33.95
2023-07-19T11:53:37.569Z,34.04
2023-07-19T11:54:37.460Z,34.03
2023-07-19T11:55:37.549Z,33.94
2023-07-19T11:56:37.463Z,33.73
2023-07-19T11:57:37.503Z,33.53
2023-07-19T11:58:45.235Z,33.35
2023-07-19T11:59:38.580Z,33.31
2023-07-19T12:00:37.519Z,33.26
2023-07-19T12:01:37.460Z,33.40
2023-07-19T12:02:37.540Z,33.63
2023-07-19T12:03:37.632Z,33.61
2023-07-19T12:04:37.415Z,33.45
2023-07-19T12:05:37.478Z,33.40
2023-07-19T12:06:37.337Z,33.40
2023-07-19T12:07:37.390Z,33.61
2023-07-19T12:08:37.402Z,33.89
2023-07-19T12:09:37.385Z,34.16
2023-07-19T12:10:37.298Z,35.04
2023-07-19T12:11:37.305Z,35.63
2023-07-19T12:12:37.277Z,35.86
2023-07-19T12:13:37.260Z,35.81
2023-07-19T12:14:37.233Z,36.24
2023-07-19T12:15:37.323Z,36.67
2023-07-19T12:16:37.233Z,36.72
2023-07-19T12:17:37.417Z,36.99
2023-07-19T12:18:37.188Z,36.81
2023-07-19T12:19:37.215Z,36.66
2023-07-19T12:20:37.184Z,36.45
2023-07-19T12:21:37.239Z,36.88
2023-07-19T12:22:37.163Z,37.28
2023-07-19T12:23:38.369Z,37.04
2023-07-19T12:24:37.126Z,37.19
2023-07-19T12:25:37.162Z,37.63
2023-07-19T12:26:37.382Z,38.27
2023-07-19T12:27:37.197Z,38.92
2023-07-19T12:28:37.091Z,39.57
2023-07-19T12:29:48.625Z,39.07
2023-07-19T12:30:38.089Z,38.54
2023-07-19T12:31:37.115Z,38.00
2023-07-19T12:32:37.114Z,37.91
2023-07-19T12:33:37.070Z,37.76
2023-07-19T12:34:37.027Z,37.31
2023-07-19T12:35:38.002Z,37.34
2023-07-19T12:36:37.007Z,38.01
2023-07-19T12:37:37.026Z,37.71
2023-07-19T12:38:36.997Z,37.11
2023-07-19T12:39:37.498Z,36.97
2023-07-19T12:40:37.080Z,36.55
2023-07-19T12:41:39.637Z,36.54
2023-07-19T12:42:36.929Z,37.03
2023-07-19T12:43:36.950Z,37.58
2023-07-19T12:44:36.908Z,37.78
2023-07-19T12:45:36.938Z,38.42
2023-07-19T12:46:36.891Z,38.47
2023-07-19T12:47:38.221Z,38.12
2023-07-19T12:48:36.905Z,37.94
2023-07-19T12:49:36.942Z,38.68
2023-07-19T12:50:36.856Z,38.88
2023-07-19T12:51:36.877Z,39.44
2023-07-19T12:52:50.025Z,40.36
2023-07-19T12:53:39.242Z,41.03